createdAt,value
2022-09-12T00:04:35.646Z,0
2022-09-12T00:14:36.194Z,0
2022-09-12T00:24:36.647Z,0
2022-09-12T00:34:36.749Z,0
2022-09-12T00:44:37.309Z,0
2022-09-12T00:54:37.839Z,0
2022-09-12T01:04:38.397Z,0
2022-09-12T01:14:38.940Z,0
2022-09-12T01:24:39.208Z,0
2022-09-12T01:34:39.628Z,0
2022-09-12T01:44:40.230Z,0
2022-09-12T01:54:40.561Z,0
2022-09-12T02:04:41.262Z,0
2022-09-12T02:14:41.343Z,0
2022-09-12T02:24:41.996Z,0
2022-09-12T02:34:42.282Z,0
2022-09-12T02:44:42.434Z,0
2022-09-12T02:54:42.846Z,0
2022-09-12T03:04:43.501Z,0
2022-09-12T03:14:45.614Z,0
2022-09-12T03:25:27.006Z,0
2022-09-12T03:39:20.349Z,0
2022-09-12T03:54:41.888Z,0
2022-09-12T04:04:49.206Z,0
2022-09-12T04:14:50.577Z,0
2022-09-12T04:44:51.620Z,0
2022-09-12T04:54:51.464Z,0
2022-09-12T05:34:53.545Z,0
2022-09-12T05:44:53.952Z,0
2022-09-12T05:54:55.188Z,0
2022-09-12T06:04:55.875Z,0
2022-09-12T06:14:56.129Z,0
2022-09-12T06:24:57.924Z,0
2022-09-12T06:54:56.217Z,0
2022-09-12T07:04:57.347Z,0
2022-09-12T07:14:59.004Z,0
2022-09-12T07:25:00.760Z,0
2022-09-12T07:45:01.320Z,0
2022-09-12T07:55:02.316Z,0
2022-09-12T08:16:16.907Z,0
2022-09-12T08:24:58.515Z,0
2022-09-12T08:34:59.350Z,0
2022-09-12T08:45:00.250Z,0
2022-09-12T08:55:00.990Z,0
2022-09-12T09:05:01.791Z,0
2022-09-12T09:15:02.535Z,0
2022-09-12T09:25:02.617Z,0
2022-09-12T09:35:03.155Z,0
2022-09-12T09:45:03.349Z,0
2022-09-12T09:55:04.086Z,0
2022-09-12T10:05:04.885Z,0
2022-09-12T10:15:12.144Z,0
2022-09-12T10:25:05.626Z,0
2022-09-12T10:35:06.535Z,0
2022-09-12T10:45:06.792Z,0
2022-09-12T10:55:07.449Z,0
2022-09-12T11:15:08.528Z,0
2022-09-12T11:25:08.930Z,12
2022-09-12T11:35:09.874Z,35
2022-09-12T11:55:09.833Z,67
2022-09-12T12:15:11.471Z,85
2022-09-12T12:25:12.173Z,92
2022-09-12T12:35:12.990Z,92
2022-09-12T12:45:13.501Z,89
2022-09-12T12:55:13.592Z,90
2022-09-12T12:55:18.880Z,90
2022-09-12T13:05:19.002Z,90
2022-09-12T13:15:19.673Z,87
2022-09-12T13:25:19.903Z,88
2022-09-12T13:35:27.625Z,89
2022-09-12T13:45:20.737Z,87
2022-09-12T13:55:28.448Z,82
2022-09-12T14:05:21.989Z,85
2022-09-12T14:15:22.964Z,81
2022-09-12T14:25:23.045Z,83
2022-09-12T14:55:23.880Z,83
2022-09-12T15:05:24.371Z,85
2022-09-12T15:15:24.774Z,83
2022-09-12T15:25:25.801Z,82
2022-09-12T15:35:26.258Z,82
2022-09-12T15:45:26.815Z,83
2022-09-12T15:55:26.839Z,84
2022-09-12T16:05:27.254Z,84
2022-09-12T16:25:28.482Z,84
2022-09-12T16:35:29.458Z,86
2022-09-12T16:45:29.551Z,88
2022-09-12T16:55:32.264Z,88
2022-09-12T17:05:30.473Z,91
2022-09-12T17:15:30.513Z,92
2022-09-12T17:25:30.627Z,96
2022-09-12T17:35:31.141Z,98
2022-09-12T17:45:32.172Z,97
2022-09-12T17:55:32.840Z,81
2022-09-12T18:05:33.680Z,35
2022-09-12T18:15:33.734Z,0
2022-09-12T18:25:34.168Z,0
2022-09-12T18:35:34.801Z,0
2022-09-12T18:45:35.350Z,0
2022-09-12T18:55:35.852Z,0
2022-09-12T19:05:36.551Z,0
2022-09-12T19:15:36.691Z,0
2022-09-12T19:25:36.965Z,0
2022-09-12T19:35:37.568Z,0
2022-09-12T19:45:37.957Z,0
2022-09-12T19:55:38.935Z,0
2022-09-12T20:05:42.596Z,0
2022-09-12T20:25:40.015Z,0
2022-09-12T20:45:41.041Z,0
2022-09-12T21:05:42.450Z,0
2022-09-12T21:15:42.545Z,0
2022-09-12T21:55:44.719Z,0
2022-09-12T22:15:45.224Z,0
2022-09-12T22:25:46.194Z,0
2022-09-12T22:45:46.504Z,0
2022-09-12T22:55:47.472Z,0
2022-09-12T23:05:47.564Z,0
2022-09-12T23:15:48.356Z,0
2022-09-12T23:25:48.385Z,0
2022-09-12T23:35:48.525Z,0
